Time;durP1;ratioP1;P1;durP2;ratioP2;P2;SDS_P1;SDS_P2;PMS_P1;PMS_P2;Temp;Humidity;BMP_temperature;BMP_pressure;BME280_temperature;BME280_humidity;BME280_pressure;Samples;Min_cycle;Max_cycle;Signal;HPM_P1;HPM_P2
2023/12/21 00:02:23;;;;;;;0.55;0.43;;;;;;;;;;5011373;28;20058;-77
2023/12/21 00:04:51;;;;;;;0.77;0.60;;;;;;;;;;5011644;28;20385;-76
2023/12/21 00:07:19;;;;;;;0.10;0.10;;;;;;;;;;5009373;28;20240;-76
2023/12/21 00:09:47;;;;;;;0.10;0.10;;;;;;;;;;5009300;28;20056;-79
2023/12/21 00:12:15;;;;;;;0.10;0.10;;;;;;;;;;5009389;28;20480;-79
2023/12/21 00:14:42;;;;;;;0.10;0.10;;;;;;;;;;5009785;28;20069;-78
2023/12/21 00:17:10;;;;;;;1.48;0.52;;;;;;;;;;5009932;28;20058;-78
2023/12/21 00:19:38;;;;;;;0.43;0.43;;;;;;;;;;5009685;28;20057;-77
2023/12/21 00:22:06;;;;;;;0.05;0.05;;;;;;;;;;5010389;28;20058;-77
2023/12/21 00:24:34;;;;;;;0.10;0.10;;;;;;;;;;5009748;28;20070;-76
2023/12/21 00:27:02;;;;;;;0.13;0.13;;;;;;;;;;5009192;28;20426;-78
2023/12/21 00:29:30;;;;;;;0.10;0.10;;;;;;;;;;5009834;28;20492;-79
2023/12/21 00:31:58;;;;;;;0.00;0.00;;;;;;;;;;5008672;28;20042;-79
2023/12/21 00:34:25;;;;;;;0.20;0.20;;;;;;;;;;5009631;28;20038;-78
2023/12/21 00:36:53;;;;;;;0.10;0.10;;;;;;;;;;5008485;28;20105;-78
2023/12/21 00:39:21;;;;;;;0.10;0.10;;;;;;;;;;5008731;28;20057;-77
2023/12/21 00:41:49;;;;;;;0.00;0.00;;;;;;;;;;5008393;28;20092;-77
2023/12/21 00:44:16;;;;;;;0.30;0.30;;;;;;;;;;5008775;28;20151;-79
2023/12/21 00:46:44;;;;;;;0.10;0.10;;;;;;;;;;5008110;28;20081;-78
2023/12/21 00:49:12;;;;;;;0.08;0.08;;;;;;;;;;5008307;28;20100;-77
2023/12/21 00:51:39;;;;;;;0.10;0.10;;;;;;;;;;5008717;28;20054;-78
2023/12/21 00:54:07;;;;;;;0.10;0.10;;;;;;;;;;5008764;28;20319;-79
2023/12/21 00:56:35;;;;;;;0.17;0.17;;;;;;;;;;5008986;28;20082;-79
2023/12/21 00:59:04;;;;;;;2.55;2.38;;;;;;;;;;5009395;28;20049;-77
2023/12/21 01:01:31;;;;;;;0.10;0.10;;;;;;;;;;5009196;28;20064;-78
2023/12/21 01:03:59;;;;;;;0.28;0.28;;;;;;;;;;5008943;28;20153;-78
2023/12/21 01:06:27;;;;;;;0.10;0.10;;;;;;;;;;5008741;28;20424;-78
2023/12/21 01:08:55;;;;;;;0.10;0.10;;;;;;;;;;5009622;28;20054;-79
2023/12/21 01:11:22;;;;;;;0.10;0.10;;;;;;;;;;5009426;28;20046;-78
2023/12/21 01:13:50;;;;;;;0.10;0.10;;;;;;;;;;5009365;28;20611;-78
2023/12/21 01:16:18;;;;;;;0.10;0.10;;;;;;;;;;5008625;28;20074;-78
2023/12/21 01:18:46;;;;;;;0.10;0.10;;;;;;;;;;5008190;28;20053;-77
2023/12/21 01:21:14;;;;;;;0.10;0.10;;;;;;;;;;5007812;28;20053;-79
2023/12/21 01:23:42;;;;;;;0.00;0.00;;;;;;;;;;5009752;28;20046;-77
2023/12/21 01:26:09;;;;;;;0.10;0.10;;;;;;;;;;5008770;28;20038;-78
2023/12/21 01:28:37;;;;;;;0.10;0.10;;;;;;;;;;5007830;28;20049;-78
2023/12/21 01:31:05;;;;;;;0.10;0.10;;;;;;;;;;5008370;28;20041;-77
2023/12/21 01:33:32;;;;;;;0.25;0.25;;;;;;;;;;5008183;28;20113;-77
2023/12/21 01:36:00;;;;;;;0.10;0.10;;;;;;;;;;5008065;28;20515;-78
2023/12/21 01:38:28;;;;;;;1.65;0.52;;;;;;;;;;5008919;28;20084;-78
2023/12/21 01:40:55;;;;;;;0.10;0.10;;;;;;;;;;5012529;28;20512;-78
2023/12/21 01:43:23;;;;;;;0.10;0.10;;;;;;;;;;5009253;28;20312;-78
2023/12/21 01:45:51;;;;;;;0.10;0.10;;;;;;;;;;5011112;28;20137;-77
2023/12/21 01:48:19;;;;;;;0.40;0.40;;;;;;;;;;5007731;28;20053;-77
2023/12/21 01:50:47;;;;;;;0.13;0.13;;;;;;;;;;5008869;28;20070;-79
2023/12/21 01:53:16;;;;;;;0.55;0.55;;;;;;;;;;5008858;28;20084;-78
2023/12/21 01:55:44;;;;;;;0.10;0.10;;;;;;;;;;5003091;28;20500;-79
2023/12/21 01:58:12;;;;;;;0.30;0.30;;;;;;;;;;5011140;28;20480;-77
2023/12/21 02:00:40;;;;;;;0.73;0.43;;;;;;;;;;5010962;28;20056;-77
2023/12/21 02:03:08;;;;;;;0.10;0.10;;;;;;;;;;5010929;28;20677;-79
2023/12/21 02:05:36;;;;;;;0.45;0.20;;;;;;;;;;5011679;28;20049;-79
2023/12/21 02:08:04;;;;;;;0.10;0.10;;;;;;;;;;5011717;28;20412;-79
2023/12/21 02:10:32;;;;;;;0.15;0.15;;;;;;;;;;5011091;28;20056;-79
2023/12/21 02:13:00;;;;;;;0.38;0.38;;;;;;;;;;5010898;28;20050;-78
2023/12/21 02:15:28;;;;;;;0.10;0.10;;;;;;;;;;5021376;28;20049;-78
2023/12/21 02:17:56;;;;;;;0.10;0.10;;;;;;;;;;4993424;28;20050;-78
2023/12/21 02:20:24;;;;;;;0.10;0.10;;;;;;;;;;5009627;28;20111;-78
2023/12/21 02:22:52;;;;;;;0.10;0.10;;;;;;;;;;5008356;28;20058;-78
2023/12/21 02:25:20;;;;;;;0.20;0.20;;;;;;;;;;5008264;28;20046;-79
2023/12/21 02:27:49;;;;;;;0.10;0.10;;;;;;;;;;4990882;28;20042;-78
2023/12/21 02:30:16;;;;;;;0.30;0.30;;;;;;;;;;5007888;28;20342;-78
2023/12/21 02:32:46;;;;;;;0.40;0.40;;;;;;;;;;5009060;28;20311;-77
2023/12/21 02:35:15;;;;;;;0.20;0.20;;;;;;;;;;5007035;28;20104;-76
2023/12/21 02:37:43;;;;;;;0.30;0.30;;;;;;;;;;5009710;28;20408;-78
2023/12/21 02:40:11;;;;;;;0.10;0.10;;;;;;;;;;5010239;28;20070;-77
2023/12/21 02:42:39;;;;;;;0.40;0.40;;;;;;;;;;5009891;28;20069;-76
2023/12/21 02:45:07;;;;;;;0.10;0.10;;;;;;;;;;5009932;28;20420;-77
2023/12/21 02:47:34;;;;;;;0.10;0.10;;;;;;;;;;5009376;28;20054;-77
2023/12/21 02:50:02;;;;;;;0.20;0.20;;;;;;;;;;5009903;28;20511;-78
2023/12/21 02:52:30;;;;;;;0.63;0.40;;;;;;;;;;5003236;28;20166;-78
2023/12/21 02:54:58;;;;;;;0.10;0.10;;;;;;;;;;5008143;28;20073;-78
2023/12/21 02:57:26;;;;;;;0.40;0.38;;;;;;;;;;5009575;28;20057;-78
2023/12/21 02:59:54;;;;;;;0.10;0.10;;;;;;;;;;5010078;28;20050;-77
2023/12/21 03:02:21;;;;;;;0.32;0.32;;;;;;;;;;5009365;28;20588;-78
2023/12/21 03:04:49;;;;;;;0.10;0.10;;;;;;;;;;5009458;28;20107;-78
2023/12/21 03:07:17;;;;;;;0.03;0.03;;;;;;;;;;4992437;28;20050;-78
2023/12/21 03:09:44;;;;;;;0.10;0.10;;;;;;;;;;5010115;28;20042;-78
2023/12/21 03:12:12;;;;;;;0.10;0.10;;;;;;;;;;5009542;28;20038;-79
2023/12/21 03:14:40;;;;;;;0.10;0.10;;;;;;;;;;5009884;28;20054;-79
2023/12/21 03:17:07;;;;;;;0.43;0.40;;;;;;;;;;5010187;28;20049;-77
2023/12/21 03:19:35;;;;;;;0.10;0.10;;;;;;;;;;5008802;28;20056;-77
2023/12/21 03:22:03;;;;;;;0.10;0.10;;;;;;;;;;5011074;28;20049;-77
2023/12/21 03:24:31;;;;;;;0.17;0.17;;;;;;;;;;5004522;28;20057;-78
2023/12/21 03:26:59;;;;;;;0.10;0.10;;;;;;;;;;5010303;28;20058;-78
2023/12/21 03:29:27;;;;;;;0.00;0.00;;;;;;;;;;5010960;28;20089;-78
2023/12/21 03:31:56;;;;;;;0.10;0.10;;;;;;;;;;5009754;28;20056;-78
2023/12/21 03:34:24;;;;;;;0.10;0.10;;;;;;;;;;5005770;28;20065;-76
2023/12/21 03:36:52;;;;;;;0.00;0.00;;;;;;;;;;4990204;28;20073;-78
2023/12/21 03:39:19;;;;;;;0.10;0.10;;;;;;;;;;5009054;28;20053;-78
2023/12/21 03:41:48;;;;;;;0.10;0.10;;;;;;;;;;5010075;28;20447;-78
2023/12/21 03:44:18;;;;;;;0.10;0.10;;;;;;;;;;5009556;28;20708;-78
2023/12/21 03:46:46;;;;;;;0.10;0.10;;;;;;;;;;5010076;28;20161;-78
2023/12/21 03:49:13;;;;;;;0.10;0.10;;;;;;;;;;5009549;28;20092;-78
2023/12/21 03:51:41;;;;;;;0.05;0.05;;;;;;;;;;5010161;28;20128;-79
2023/12/21 03:54:09;;;;;;;0.10;0.10;;;;;;;;;;5010184;28;20365;-79
2023/12/21 03:56:39;;;;;;;0.10;0.10;;;;;;;;;;5007831;28;20050;-78
2023/12/21 03:59:07;;;;;;;0.10;0.10;;;;;;;;;;5002779;28;20053;-79
2023/12/21 04:01:35;;;;;;;0.10;0.10;;;;;;;;;;5010240;28;20060;-78
2023/12/21 04:04:02;;;;;;;0.10;0.10;;;;;;;;;;5010032;28;20061;-79
2023/12/21 04:06:30;;;;;;;2.92;0.38;;;;;;;;;;5000820;28;20518;-78
2023/12/21 04:08:58;;;;;;;0.10;0.10;;;;;;;;;;5009676;28;20128;-77
2023/12/21 04:11:25;;;;;;;0.10;0.10;;;;;;;;;;5009758;28;20420;-78
2023/12/21 04:13:53;;;;;;;0.10;0.10;;;;;;;;;;5008544;28;20053;-79
2023/12/21 04:16:21;;;;;;;0.10;0.10;;;;;;;;;;5009728;28;20049;-77
2023/12/21 04:18:49;;;;;;;0.10;0.10;;;;;;;;;;5009024;28;20053;-77
2023/12/21 04:21:17;;;;;;;0.10;0.10;;;;;;;;;;5008713;28;20054;-78
2023/12/21 04:23:45;;;;;;;0.22;0.20;;;;;;;;;;5008868;28;20042;-78
2023/12/21 04:26:23;;;;;;;0.00;0.00;;;;;;;;;;5010055;28;20107;-77
2023/12/21 04:28:51;;;;;;;0.10;0.10;;;;;;;;;;5006512;28;20042;-78
2023/12/21 04:31:19;;;;;;;0.10;0.10;;;;;;;;;;5010576;28;20058;-77
2023/12/21 04:33:49;;;;;;;0.10;0.10;;;;;;;;;;5007891;28;20046;-78
2023/12/21 04:36:17;;;;;;;0.00;0.00;;;;;;;;;;5009821;28;20072;-78
2023/12/21 04:38:48;;;;;;;0.10;0.10;;;;;;;;;;5009151;28;20050;-78
2023/12/21 04:41:16;;;;;;;0.10;0.10;;;;;;;;;;5009597;28;20061;-77
2023/12/21 04:43:43;;;;;;;0.35;0.35;;;;;;;;;;5008834;28;20046;-77
2023/12/21 04:46:11;;;;;;;0.20;0.20;;;;;;;;;;4996872;28;20068;-78
2023/12/21 04:48:39;;;;;;;0.03;0.03;;;;;;;;;;5010223;28;20050;-78
2023/12/21 04:51:07;;;;;;;0.32;0.32;;;;;;;;;;5007384;28;20500;-76
2023/12/21 04:53:34;;;;;;;0.10;0.10;;;;;;;;;;5008993;28;20070;-78
2023/12/21 04:56:05;;;;;;;0.13;0.13;;;;;;;;;;5009153;28;20046;-78
2023/12/21 04:58:33;;;;;;;0.20;0.20;;;;;;;;;;5003957;28;20081;-78
2023/12/21 05:01:01;;;;;;;0.30;0.30;;;;;;;;;;5006243;28;21183;-78
2023/12/21 05:03:29;;;;;;;0.20;0.20;;;;;;;;;;5008337;28;20061;-78
2023/12/21 05:05:56;;;;;;;0.45;0.25;;;;;;;;;;5009316;28;20064;-77
2023/12/21 05:08:24;;;;;;;0.20;0.20;;;;;;;;;;5009191;28;20910;-78
2023/12/21 05:10:52;;;;;;;0.10;0.10;;;;;;;;;;5008981;28;20041;-77
2023/12/21 05:13:20;;;;;;;0.30;0.17;;;;;;;;;;5007829;28;20049;-78
2023/12/21 05:15:47;;;;;;;0.20;0.20;;;;;;;;;;5009654;28;20484;-78
2023/12/21 05:18:15;;;;;;;0.17;0.17;;;;;;;;;;5006448;28;20053;-78
2023/12/21 05:20:43;;;;;;;0.10;0.10;;;;;;;;;;5010504;28;20184;-77
2023/12/21 05:23:11;;;;;;;0.47;0.47;;;;;;;;;;5008086;28;20528;-77
2023/12/21 05:25:39;;;;;;;0.10;0.10;;;;;;;;;;5008807;28;20046;-78
2023/12/21 05:28:07;;;;;;;0.00;0.00;;;;;;;;;;5004981;28;20049;-77
2023/12/21 05:30:35;;;;;;;0.10;0.10;;;;;;;;;;5007588;28;20056;-78
2023/12/21 05:33:02;;;;;;;0.10;0.10;;;;;;;;;;5008432;28;20647;-79
2023/12/21 05:35:30;;;;;;;0.10;0.10;;;;;;;;;;5001689;28;20380;-78
2023/12/21 05:37:58;;;;;;;0.20;0.20;;;;;;;;;;5003943;28;20065;-78
2023/12/21 05:40:26;;;;;;;0.38;0.38;;;;;;;;;;5005147;28;20061;-78
2023/12/21 05:42:53;;;;;;;0.10;0.10;;;;;;;;;;5002191;28;20054;-79
2023/12/21 05:45:21;;;;;;;0.10;0.10;;;;;;;;;;5009096;28;20045;-79
2023/12/21 05:47:51;;;;;;;0.10;0.10;;;;;;;;;;5005326;28;20062;-77
2023/12/21 05:50:19;;;;;;;0.10;0.10;;;;;;;;;;5014562;28;20868;-79
2023/12/21 05:52:48;;;;;;;0.20;0.20;;;;;;;;;;5008522;28;20116;-79
2023/12/21 05:55:16;;;;;;;0.10;0.10;;;;;;;;;;5010875;28;20108;-79
2023/12/21 05:57:44;;;;;;;0.10;0.10;;;;;;;;;;5011110;28;20076;-79
2023/12/21 06:00:12;;;;;;;2.50;0.50;;;;;;;;;;5008954;28;20136;-79
2023/12/21 06:02:40;;;;;;;0.10;0.10;;;;;;;;;;5003719;28;20089;-79
2023/12/21 06:05:08;;;;;;;0.20;0.10;;;;;;;;;;5010598;28;20042;-78
2023/12/21 06:07:36;;;;;;;0.10;0.10;;;;;;;;;;4994391;28;20092;-79
2023/12/21 06:10:04;;;;;;;0.20;0.20;;;;;;;;;;5005755;28;20053;-78
2023/12/21 06:12:32;;;;;;;0.10;0.10;;;;;;;;;;5009434;28;20045;-78
2023/12/21 06:14:59;;;;;;;0.65;0.65;;;;;;;;;;5007772;28;20048;-78
2023/12/21 06:17:27;;;;;;;0.25;0.25;;;;;;;;;;5008395;28;20057;-78
2023/12/21 06:19:55;;;;;;;0.20;0.20;;;;;;;;;;5008501;28;20069;-78
2023/12/21 06:22:23;;;;;;;0.10;0.10;;;;;;;;;;5010206;28;20132;-78
2023/12/21 06:24:51;;;;;;;1.02;0.28;;;;;;;;;;5004860;28;20045;-78
2023/12/21 06:27:19;;;;;;;0.68;0.68;;;;;;;;;;5004979;28;20046;-79
2023/12/21 06:29:47;;;;;;;0.32;0.32;;;;;;;;;;5009585;28;20060;-79
2023/12/21 06:32:14;;;;;;;0.20;0.20;;;;;;;;;;5008175;28;20377;-79
2023/12/21 06:34:42;;;;;;;0.38;0.38;;;;;;;;;;5010015;28;20129;-79
2023/12/21 06:37:10;;;;;;;0.30;0.30;;;;;;;;;;5004916;28;20104;-79
2023/12/21 06:39:38;;;;;;;0.10;0.10;;;;;;;;;;5008695;28;20069;-79
2023/12/21 06:42:05;;;;;;;0.28;0.28;;;;;;;;;;5008851;28;21321;-79
2023/12/21 06:44:33;;;;;;;0.20;0.20;;;;;;;;;;5009415;28;20089;-79
2023/12/21 06:47:01;;;;;;;0.15;0.15;;;;;;;;;;5009503;28;20156;-75
2023/12/21 06:49:29;;;;;;;0.17;0.17;;;;;;;;;;5009945;28;20056;-79
2023/12/21 06:51:57;;;;;;;0.10;0.10;;;;;;;;;;5011769;28;20049;-79
2023/12/21 06:54:26;;;;;;;0.10;0.10;;;;;;;;;;5009924;28;20519;-79
2023/12/21 06:56:53;;;;;;;0.43;0.43;;;;;;;;;;5007621;28;20054;-79
2023/12/21 06:59:21;;;;;;;0.10;0.10;;;;;;;;;;5009924;28;20056;-79
2023/12/21 07:01:49;;;;;;;0.10;0.10;;;;;;;;;;5003724;28;20061;-79
2023/12/21 07:04:17;;;;;;;0.10;0.10;;;;;;;;;;5011116;28;20500;-80
2023/12/21 07:06:44;;;;;;;0.10;0.10;;;;;;;;;;5010275;28;20045;-79
2023/12/21 07:09:14;;;;;;;0.17;0.10;;;;;;;;;;5010359;28;20041;-79
2023/12/21 07:11:41;;;;;;;0.10;0.10;;;;;;;;;;5011884;28;20147;-79
2023/12/21 07:14:09;;;;;;;0.75;0.63;;;;;;;;;;5010807;28;20070;-79
2023/12/21 07:16:37;;;;;;;0.10;0.10;;;;;;;;;;5010884;28;20046;-79
2023/12/21 07:19:06;;;;;;;0.10;0.10;;;;;;;;;;5012179;28;20054;-79
2023/12/21 07:21:34;;;;;;;0.15;0.15;;;;;;;;;;5007244;28;20053;-79
2023/12/21 07:24:02;;;;;;;0.10;0.10;;;;;;;;;;5012791;28;20045;-78
2023/12/21 07:26:30;;;;;;;1.83;0.55;;;;;;;;;;5005733;28;20049;-78
2023/12/21 07:28:58;;;;;;;0.10;0.10;;;;;;;;;;5011158;28;20038;-79
2023/12/21 07:31:25;;;;;;;0.20;0.20;;;;;;;;;;5005757;28;20105;-79
2023/12/21 07:33:53;;;;;;;0.80;0.80;;;;;;;;;;4995001;28;20069;-78
2023/12/21 07:36:21;;;;;;;0.00;0.00;;;;;;;;;;5009903;28;20484;-78
2023/12/21 07:38:48;;;;;;;0.10;0.10;;;;;;;;;;5006069;28;20104;-79
2023/12/21 07:41:16;;;;;;;0.30;0.30;;;;;;;;;;5003316;28;20064;-79
2023/12/21 07:43:44;;;;;;;0.10;0.10;;;;;;;;;;4995714;28;20054;-78
2023/12/21 07:46:13;;;;;;;0.10;0.10;;;;;;;;;;5009942;28;20077;-78
2023/12/21 07:48:43;;;;;;;0.10;0.10;;;;;;;;;;5008075;28;20145;-79
2023/12/21 07:51:10;;;;;;;0.20;0.20;;;;;;;;;;5061913;23;20041;-79
2023/12/21 07:53:38;;;;;;;0.22;0.22;;;;;;;;;;5040047;28;20045;-79
2023/12/21 07:56:06;;;;;;;0.20;0.20;;;;;;;;;;5031149;28;20204;-79
2023/12/21 07:58:34;;;;;;;0.10;0.10;;;;;;;;;;5028407;28;20049;-82
2023/12/21 08:01:02;;;;;;;0.10;0.10;;;;;;;;;;4987081;28;20180;-82
2023/12/21 08:03:30;;;;;;;1.17;0.32;;;;;;;;;;5025521;28;20621;-79
2023/12/21 08:05:57;;;;;;;0.10;0.10;;;;;;;;;;5009077;28;20080;-80
2023/12/21 08:08:25;;;;;;;0.10;0.10;;;;;;;;;;5025721;28;20092;-80
2023/12/21 08:10:52;;;;;;;0.20;0.20;;;;;;;;;;5002343;28;20091;-79
2023/12/21 08:13:20;;;;;;;0.82;0.82;;;;;;;;;;5023493;28;20041;-79
2023/12/21 08:15:48;;;;;;;0.28;0.28;;;;;;;;;;5027527;28;20129;-79
2023/12/21 08:18:16;;;;;;;0.10;0.10;;;;;;;;;;5023882;28;20124;-79
2023/12/21 08:20:47;;;;;;;2.80;0.22;;;;;;;;;;5019560;28;20598;-80
2023/12/21 08:23:15;;;;;;;0.10;0.10;;;;;;;;;;5024783;28;20443;-77
2023/12/21 08:25:44;;;;;;;0.10;0.10;;;;;;;;;;5026227;28;20116;-77
2023/12/21 08:28:11;;;;;;;0.10;0.10;;;;;;;;;;5025117;28;20049;-78
2023/12/21 08:30:41;;;;;;;0.17;0.17;;;;;;;;;;5022117;28;20056;-77
2023/12/21 08:33:09;;;;;;;0.10;0.10;;;;;;;;;;5003687;28;20038;-77
2023/12/21 08:35:37;;;;;;;0.00;0.00;;;;;;;;;;5018575;28;20046;-78
2023/12/21 08:38:04;;;;;;;0.38;0.38;;;;;;;;;;5016939;28;20181;-78
2023/12/21 08:40:32;;;;;;;0.20;0.20;;;;;;;;;;5002415;28;20052;-79
2023/12/21 08:42:59;;;;;;;0.20;0.20;;;;;;;;;;5014451;28;20037;-78
2023/12/21 08:45:27;;;;;;;0.10;0.10;;;;;;;;;;5008261;28;20046;-82
2023/12/21 08:47:56;;;;;;;0.10;0.10;;;;;;;;;;5026295;28;20045;-80
2023/12/21 08:50:25;;;;;;;0.10;0.10;;;;;;;;;;5027585;28;20049;-80
2023/12/21 08:52:53;;;;;;;0.43;0.20;;;;;;;;;;5020049;28;20335;-80
2023/12/21 08:55:24;;;;;;;0.10;0.10;;;;;;;;;;5022462;28;20045;-79
2023/12/21 08:57:51;;;;;;;0.30;0.30;;;;;;;;;;5024152;28;20095;-80
2023/12/21 09:00:19;;;;;;;0.20;0.20;;;;;;;;;;5024677;28;20053;-80
2023/12/21 09:02:47;;;;;;;0.40;0.40;;;;;;;;;;5026618;28;20486;-79
2023/12/21 09:05:15;;;;;;;0.60;0.50;;;;;;;;;;5020762;28;20065;-79
2023/12/21 09:07:44;;;;;;;0.40;0.40;;;;;;;;;;5027478;28;20450;-82
2023/12/21 09:10:12;;;;;;;0.10;0.10;;;;;;;;;;5023915;28;20052;-78
2023/12/21 09:12:39;;;;;;;0.40;0.20;;;;;;;;;;5029262;28;20044;-78
2023/12/21 09:15:08;;;;;;;0.40;0.40;;;;;;;;;;5006616;28;20105;-80
2023/12/21 09:17:36;;;;;;;0.30;0.30;;;;;;;;;;5025139;28;20034;-79
2023/12/21 09:20:04;;;;;;;0.20;0.20;;;;;;;;;;5026177;28;20052;-79
2023/12/21 09:22:32;;;;;;;0.10;0.10;;;;;;;;;;5023675;28;20056;-80
2023/12/21 09:25:01;;;;;;;0.10;0.10;;;;;;;;;;5026631;28;20432;-79
2023/12/21 09:27:32;;;;;;;0.30;0.30;;;;;;;;;;5031063;28;20046;-80
2023/12/21 09:29:59;;;;;;;0.25;0.25;;;;;;;;;;5031229;28;20045;-82
2023/12/21 09:32:27;;;;;;;0.20;0.20;;;;;;;;;;4997000;28;20049;-78
2023/12/21 09:34:54;;;;;;;0.20;0.20;;;;;;;;;;5024195;28;20410;-78
2023/12/21 09:37:22;;;;;;;0.28;0.28;;;;;;;;;;5010894;28;20136;-82
2023/12/21 09:39:50;;;;;;;0.10;0.10;;;;;;;;;;5022734;28;20056;-79
2023/12/21 09:42:18;;;;;;;0.00;0.00;;;;;;;;;;5024020;28;20045;-77
2023/12/21 09:44:47;;;;;;;0.00;0.00;;;;;;;;;;5026016;28;20045;-79
2023/12/21 09:47:18;;;;;;;0.10;0.10;;;;;;;;;;5024227;28;20048;-77
2023/12/21 09:49:47;;;;;;;0.20;0.20;;;;;;;;;;5030130;28;20458;-80
2023/12/21 09:52:17;;;;;;;0.35;0.35;;;;;;;;;;5028624;28;20045;-80
2023/12/21 09:54:50;;;;;;;0.52;0.20;;;;;;;;;;5025701;28;20064;-77
2023/12/21 09:57:17;;;;;;;;;;;;;;;;;;5028328;28;20103;-79
2023/12/21 09:59:45;;;;;;;0.20;0.20;;;;;;;;;;5027711;28;19945;-79
2023/12/21 10:02:12;;;;;;;0.63;0.28;;;;;;;;;;5018983;28;20638;-78
2023/12/21 10:04:42;;;;;;;0.10;0.10;;;;;;;;;;5015790;28;20087;-77
2023/12/21 10:07:13;;;;;;;0.13;0.13;;;;;;;;;;5010215;28;20423;-79
2023/12/21 10:09:42;;;;;;;0.55;0.32;;;;;;;;;;5014133;28;20048;-80
2023/12/21 10:12:10;;;;;;;0.05;0.05;;;;;;;;;;5010946;28;20418;-79
2023/12/21 10:14:37;;;;;;;0.20;0.20;;;;;;;;;;5031965;28;20055;-81
2023/12/21 10:17:09;;;;;;;0.30;0.30;;;;;;;;;;5031234;28;20049;-80
2023/12/21 10:19:38;;;;;;;0.10;0.10;;;;;;;;;;5028959;28;20679;-80
2023/12/21 10:22:06;;;;;;;0.10;0.10;;;;;;;;;;5030410;28;20065;-78
2023/12/21 10:24:37;;;;;;;1.02;1.02;;;;;;;;;;5030904;28;20389;-79
2023/12/21 10:27:15;;;;;;;0.40;0.40;;;;;;;;;;5001001;28;20049;-79
2023/12/21 10:29:51;;;;;;;0.08;0.08;;;;;;;;;;5027348;28;20085;-79
2023/12/21 10:32:18;;;;;;;0.10;0.10;;;;;;;;;;5008320;28;20095;-80
2023/12/21 10:34:46;;;;;;;0.10;0.10;;;;;;;;;;5026582;28;20045;-80
2023/12/21 10:37:20;;;;;;;0.10;0.10;;;;;;;;;;5028933;28;20073;-80
2023/12/21 10:39:47;;;;;;;0.40;0.40;;;;;;;;;;5022354;28;20474;-78
2023/12/21 10:42:15;;;;;;;0.10;0.10;;;;;;;;;;5029263;28;20045;-80
2023/12/21 10:44:47;;;;;;;0.43;0.43;;;;;;;;;;5030720;28;20107;-77
2023/12/21 10:47:16;;;;;;;0.10;0.10;;;;;;;;;;5028975;28;20056;-78
2023/12/21 10:49:45;;;;;;;0.30;0.30;;;;;;;;;;5027143;28;20056;-79
2023/12/21 10:52:13;;;;;;;0.32;0.30;;;;;;;;;;5003480;28;20136;-77
2023/12/21 10:54:42;;;;;;;0.10;0.10;;;;;;;;;;5028731;28;20061;-82
2023/12/21 10:57:10;;;;;;;0.10;0.10;;;;;;;;;;5027710;28;20420;-81
2023/12/21 10:59:38;;;;;;;0.00;0.00;;;;;;;;;;5027993;28;20049;-80
2023/12/21 11:02:11;;;;;;;0.10;0.10;;;;;;;;;;5027997;28;20096;-77
2023/12/21 11:04:39;;;;;;;0.00;0.00;;;;;;;;;;5029009;28;20369;-79
2023/12/21 11:07:08;;;;;;;0.15;0.10;;;;;;;;;;5025479;28;20069;-83
2023/12/21 11:09:38;;;;;;;0.20;0.20;;;;;;;;;;5008607;28;20472;-82
2023/12/21 11:12:08;;;;;;;0.10;0.10;;;;;;;;;;5027233;28;20076;-79
2023/12/21 11:14:36;;;;;;;0.25;0.25;;;;;;;;;;5027948;28;20045;-78
2023/12/21 11:17:05;;;;;;;0.75;0.30;;;;;;;;;;4995477;28;20530;-80
2023/12/21 11:19:35;;;;;;;0.20;0.20;;;;;;;;;;5026995;28;20041;-79
2023/12/21 11:22:04;;;;;;;0.35;0.35;;;;;;;;;;5009159;28;20500;-80
2023/12/21 11:24:32;;;;;;;0.15;0.13;;;;;;;;;;5024537;28;21229;-81
2023/12/21 11:27:01;;;;;;;0.17;0.10;;;;;;;;;;5028070;28;20048;-78
2023/12/21 11:29:29;;;;;;;0.20;0.20;;;;;;;;;;5025611;28;20057;-78
2023/12/21 11:31:58;;;;;;;0.10;0.10;;;;;;;;;;5007448;28;20051;-81
2023/12/21 11:34:42;;;;;;;0.10;0.10;;;;;;;;;;5025996;28;20041;-80
2023/12/21 11:37:16;;;;;;;0.20;0.20;;;;;;;;;;5025425;28;20112;-80
2023/12/21 11:39:44;;;;;;;0.20;0.13;;;;;;;;;;5027122;28;20514;-82
2023/12/21 11:42:12;;;;;;;0.35;0.35;;;;;;;;;;5027267;28;20041;-81
2023/12/21 11:44:39;;;;;;;0.10;0.10;;;;;;;;;;5026378;28;20180;-78
2023/12/21 11:47:08;;;;;;;0.32;0.32;;;;;;;;;;5025208;28;20061;-78
2023/12/21 11:49:37;;;;;;;0.40;0.40;;;;;;;;;;5026708;28;20049;-78
2023/12/21 11:52:05;;;;;;;0.30;0.30;;;;;;;;;;5025456;28;20049;-80
2023/12/21 11:54:32;;;;;;;0.93;0.80;;;;;;;;;;5004568;28;20037;-78
2023/12/21 11:57:14;;;;;;;0.30;0.30;;;;;;;;;;5008456;28;20124;-80
2023/12/21 11:59:44;;;;;;;0.45;0.40;;;;;;;;;;5027003;28;20096;-81
2023/12/21 12:02:14;;;;;;;0.20;0.20;;;;;;;;;;5020553;28;20120;-80
2023/12/21 12:04:49;;;;;;;0.35;0.35;;;;;;;;;;5020220;28;20046;-78
2023/12/21 12:07:19;;;;;;;3.67;0.25;;;;;;;;;;5014639;28;20153;-80
2023/12/21 12:09:46;;;;;;;0.10;0.10;;;;;;;;;;5021420;28;20080;-81
2023/12/21 12:12:14;;;;;;;0.30;0.30;;;;;;;;;;5023162;28;20087;-80
2023/12/21 12:14:41;;;;;;;0.38;0.38;;;;;;;;;;5018159;28;20072;-85
2023/12/21 12:17:09;;;;;;;0.15;0.15;;;;;;;;;;5023418;28;20133;-80
2023/12/21 12:19:38;;;;;;;0.10;0.10;;;;;;;;;;5008844;28;20132;-81
2023/12/21 12:22:05;;;;;;;0.32;0.10;;;;;;;;;;5026915;28;20142;-80
2023/12/21 12:24:33;;;;;;;0.10;0.10;;;;;;;;;;5026670;28;20056;-81
2023/12/21 12:27:03;;;;;;;0.10;0.10;;;;;;;;;;5027454;28;20128;-79
2023/12/21 12:29:31;;;;;;;1.45;0.43;;;;;;;;;;5027871;28;20123;-81
2023/12/21 12:31:58;;;;;;;0.43;0.43;;;;;;;;;;5027637;28;20053;-81
2023/12/21 12:34:26;;;;;;;0.13;0.13;;;;;;;;;;5028277;28;20080;-81
2023/12/21 12:36:54;;;;;;;0.10;0.10;;;;;;;;;;5028484;28;20045;-80
2023/12/21 12:39:22;;;;;;;0.22;0.22;;;;;;;;;;5028100;28;20052;-80
2023/12/21 12:41:54;;;;;;;0.30;0.30;;;;;;;;;;5025768;28;20129;-81
2023/12/21 12:44:21;;;;;;;0.30;0.30;;;;;;;;;;5027616;28;20099;-84
2023/12/21 12:46:52;;;;;;;0.22;0.22;;;;;;;;;;5025013;28;20480;-81
2023/12/21 12:49:22;;;;;;;0.45;0.40;;;;;;;;;;5026782;28;20073;-80
2023/12/21 12:51:54;;;;;;;0.40;0.32;;;;;;;;;;5028350;28;20052;-81
2023/12/21 12:54:29;;;;;;;0.40;0.30;;;;;;;;;;5026443;28;20115;-81
2023/12/21 12:57:00;;;;;;;0.32;0.30;;;;;;;;;;5010043;28;20107;-81
2023/12/21 12:59:27;;;;;;;0.00;0.00;;;;;;;;;;5004093;28;20120;-81
2023/12/21 13:01:55;;;;;;;0.10;0.10;;;;;;;;;;5009471;28;20518;-80
2023/12/21 13:04:23;;;;;;;0.13;0.13;;;;;;;;;;5025258;28;20064;-81
2023/12/21 13:06:53;;;;;;;0.05;0.05;;;;;;;;;;5025207;28;20041;-78
2023/12/21 13:09:21;;;;;;;0.47;0.20;;;;;;;;;;5025562;28;20044;-81
2023/12/21 13:11:49;;;;;;;0.10;0.10;;;;;;;;;;5004517;28;20060;-82
2023/12/21 13:14:17;;;;;;;0.10;0.10;;;;;;;;;;5027134;28;20053;-81
2023/12/21 13:16:44;;;;;;;0.13;0.13;;;;;;;;;;5026472;28;20060;-81
2023/12/21 13:19:12;;;;;;;0.20;0.20;;;;;;;;;;5021641;28;24052;-80
2023/12/21 13:21:39;;;;;;;0.20;0.20;;;;;;;;;;5006204;28;20062;-81
2023/12/21 13:24:07;;;;;;;0.43;0.43;;;;;;;;;;5026057;28;20104;-86
2023/12/21 13:26:34;;;;;;;0.40;0.40;;;;;;;;;;5028313;28;20088;-79
2023/12/21 13:29:04;;;;;;;3.10;1.65;;;;;;;;;;5009114;28;20071;-81
2023/12/21 13:31:32;;;;;;;0.20;0.20;;;;;;;;;;5022839;28;20042;-86
2023/12/21 13:34:00;;;;;;;0.10;0.10;;;;;;;;;;5024824;28;20057;-84
2023/12/21 13:36:28;;;;;;;0.35;0.35;;;;;;;;;;5006511;28;20054;-87
2023/12/21 13:38:58;;;;;;;0.47;0.32;;;;;;;;;;5027119;28;20053;-83
2023/12/21 13:41:26;;;;;;;0.15;0.15;;;;;;;;;;5031601;28;20508;-79
2023/12/21 13:43:53;;;;;;;0.20;0.20;;;;;;;;;;5032194;28;20054;-82
2023/12/21 13:46:21;;;;;;;0.10;0.10;;;;;;;;;;5027191;28;20049;-81
2023/12/21 13:48:49;;;;;;;0.10;0.10;;;;;;;;;;5031117;28;20072;-81
2023/12/21 13:51:17;;;;;;;0.38;0.38;;;;;;;;;;5010653;28;20050;-81
2023/12/21 13:53:45;;;;;;;0.20;0.20;;;;;;;;;;5031291;28;20057;-85
2023/12/21 13:56:12;;;;;;;0.32;0.30;;;;;;;;;;5049839;22;20043;-82
2023/12/21 13:58:40;;;;;;;0.10;0.10;;;;;;;;;;5036866;28;20107;-82
2023/12/21 14:01:08;;;;;;;0.20;0.20;;;;;;;;;;5019454;28;20451;-82
2023/12/21 14:03:36;;;;;;;0.65;0.65;;;;;;;;;;5037847;28;20049;-82
2023/12/21 14:06:03;;;;;;;1.15;0.68;;;;;;;;;;5042597;28;20048;-82
2023/12/21 14:08:31;;;;;;;2.72;0.57;;;;;;;;;;5042345;28;20053;-82
2023/12/21 14:10:59;;;;;;;0.35;0.35;;;;;;;;;;5043906;28;20047;-82
2023/12/21 14:13:27;;;;;;;0.50;0.50;;;;;;;;;;5029988;28;20122;-82
2023/12/21 14:15:56;;;;;;;0.50;0.50;;;;;;;;;;5027591;28;20045;-83
2023/12/21 14:18:24;;;;;;;0.65;0.40;;;;;;;;;;5045484;28;20505;-82
2023/12/21 14:20:52;;;;;;;6.03;0.57;;;;;;;;;;5029235;28;20048;-83
2023/12/21 14:23:21;;;;;;;0.10;0.10;;;;;;;;;;5042683;28;20511;-83
2023/12/21 14:25:49;;;;;;;0.20;0.20;;;;;;;;;;5036923;28;20083;-83
2023/12/21 14:28:17;;;;;;;0.28;0.28;;;;;;;;;;4999849;28;20286;-84
2023/12/21 14:30:45;;;;;;;0.50;0.50;;;;;;;;;;5032446;28;20584;-84
2023/12/21 14:33:14;;;;;;;0.38;0.35;;;;;;;;;;5030494;28;20044;-84
2023/12/21 14:35:42;;;;;;;0.17;0.17;;;;;;;;;;5043187;28;20508;-83
2023/12/21 14:38:13;;;;;;;0.10;0.10;;;;;;;;;;5025931;28;20087;-84
2023/12/21 14:40:42;;;;;;;0.20;0.20;;;;;;;;;;5052507;28;20053;-84
2023/12/21 14:43:09;;;;;;;0.55;0.50;;;;;;;;;;5046575;28;20033;-83
2023/12/21 14:45:37;;;;;;;0.10;0.10;;;;;;;;;;5031685;28;20107;-83
2023/12/21 14:48:05;;;;;;;0.25;0.15;;;;;;;;;;5016997;28;20048;-85
2023/12/21 14:50:32;;;;;;;0.65;0.65;;;;;;;;;;5022439;28;20307;-85